Main page
METAR-TAF:

METAR-TAF

Airports :

Leuchars, Scotland

Leuchars Station

latitude: 56-23N, longitude: 002-52W, elevation: 12 m

Current weather observation

The report was made 1 hour and 15 minutes ago, at 20:50 UTC
Wind 1 kt from the North
Temperature 5°C
Humidity 100%
Pressure 1017 hPa
Visibility: 4000 m
Overcast at a height of 300 ft
mist

METAR: EGQL 192050Z 35001KT 4000 BR OVC003 05/05 Q1017 YLO2

Time: 22:05 (22:05 UTC)

Forecast

The report was made 1 hour and 6 minutes ago, at 20:59 UTC
Forecast valid from 19 at 21 UTC to 20 at 06 UTC
Wind 5 kt from variable directions
Visibility: 7000 m
Broken clouds at a height of 700 ft
mist
Temporary
from 19 at 21 UTC to 20 at 02 UTC
Visibility: 2000 m
Scattered clouds at a height of 200 ft
Broken clouds at a height of 500 ft
rain, drizzle
Becoming
from 20 at 02 UTC to 20 at 04 UTC
Visibility 10 km or more
Few clouds at a height of 4000 ft

TAF: EGQL 192059Z 1921/2006 VRB05KT 7000 BR BKN007 TEMPO 1921/2002 2000 RADZ SCT002 BKN005 BECMG 2002/2004 9999 NSW FEW040

Weather observations and forecasts of more than 4000 airports (METAR and TAF reports).

The available stations are represented by yellow and red dots on the map.

Hover mouse over dot to see the name of the station.

Then click to see weather observations and forecasts.

To change the map : click on the green buttons with a black cross to zoom in, on the green button with a dash to zoom out, or on the green arrows for adjacent maps.


METAR-TAF: